sensor_id;sensor_type;location;lat;lon;timestamp;temperature;humidity
20735;DHT22;10528;52.124;5.196;2023-03-11T00:00:54;1.70;99.90
20735;DHT22;10528;52.124;5.196;2023-03-11T00:03:22;1.60;99.90
20735;DHT22;10528;52.124;5.196;2023-03-11T00:05:50;1.60;99.90
20735;DHT22;10528;52.124;5.196;2023-03-11T00:08:23;1.60;99.90
20735;DHT22;10528;52.124;5.196;2023-03-11T00:10:53;1.60;99.90
20735;DHT22;10528;52.124;5.196;2023-03-11T00:13:22;1.50;99.90
20735;DHT22;10528;52.124;5.196;2023-03-11T00:15:50;1.50;99.90
20735;DHT22;10528;52.124;5.196;2023-03-11T00:18:22;1.40;99.90
20735;DHT22;10528;52.124;5.196;2023-03-11T00:20:53;1.50;99.90
20735;DHT22;10528;52.124;5.196;2023-03-11T00:23:22;1.50;99.90
20735;DHT22;10528;52.124;5.196;2023-03-11T00:25:50;1.40;99.90
20735;DHT22;10528;52.124;5.196;2023-03-11T00:28:17;1.50;99.90
20735;DHT22;10528;52.124;5.196;2023-03-11T00:30:45;1.50;99.90
20735;DHT22;10528;52.124;5.196;2023-03-11T00:33:14;1.50;99.90
20735;DHT22;10528;52.124;5.196;2023-03-11T00:35:42;1.50;99.90
20735;DHT22;10528;52.124;5.196;2023-03-11T00:38:13;1.50;99.90
20735;DHT22;10528;52.124;5.196;2023-03-11T00:40:41;1.50;99.90
20735;DHT22;10528;52.124;5.196;2023-03-11T00:43:09;1.50;99.90
20735;DHT22;10528;52.124;5.196;2023-03-11T00:45:37;1.60;99.90
20735;DHT22;10528;52.124;5.196;2023-03-11T00:48:05;1.50;99.90
20735;DHT22;10528;52.124;5.196;2023-03-11T00:50:35;1.50;99.90
20735;DHT22;10528;52.124;5.196;2023-03-11T00:53:03;1.50;99.90
20735;DHT22;10528;52.124;5.196;2023-03-11T00:55:32;1.40;99.90
20735;DHT22;10528;52.124;5.196;2023-03-11T00:58:04;1.40;99.90
20735;DHT22;10528;52.124;5.196;2023-03-11T01:00:42;1.40;99.90
20735;DHT22;10528;52.124;5.196;2023-03-11T01:03:08;1.40;99.90
20735;DHT22;10528;52.124;5.196;2023-03-11T01:05:36;1.40;99.90
20735;DHT22;10528;52.124;5.196;2023-03-11T01:08:04;1.30;99.90
20735;DHT22;10528;52.124;5.196;2023-03-11T01:10:32;1.40;99.90
20735;DHT22;10528;52.124;5.196;2023-03-11T01:13:00;1.30;99.90
20735;DHT22;10528;52.124;5.196;2023-03-11T01:15:33;1.30;99.90
20735;DHT22;10528;52.124;5.196;2023-03-11T01:18:02;1.30;99.90
20735;DHT22;10528;52.124;5.196;2023-03-11T01:20:32;1.20;99.90
20735;DHT22;10528;52.124;5.196;2023-03-11T01:22:59;1.20;99.90
20735;DHT22;10528;52.124;5.196;2023-03-11T01:25:27;1.20;99.90
20735;DHT22;10528;52.124;5.196;2023-03-11T01:27:57;1.20;99.90
20735;DHT22;10528;52.124;5.196;2023-03-11T01:30:25;1.20;99.90
20735;DHT22;10528;52.124;5.196;2023-03-11T01:32:54;1.20;99.90
20735;DHT22;10528;52.124;5.196;2023-03-11T01:35:23;1.20;99.90
20735;DHT22;10528;52.124;5.196;2023-03-11T01:37:53;1.20;99.90
20735;DHT22;10528;52.124;5.196;2023-03-11T01:40:22;1.20;99.90
20735;DHT22;10528;52.124;5.196;2023-03-11T01:43:00;1.10;99.90
20735;DHT22;10528;52.124;5.196;2023-03-11T01:48:21;1.10;99.90
20735;DHT22;10528;52.124;5.196;2023-03-11T01:50:49;1.00;99.90
20735;DHT22;10528;52.124;5.196;2023-03-11T01:53:17;1.00;99.90
20735;DHT22;10528;52.124;5.196;2023-03-11T01:55:46;1.00;99.90
20735;DHT22;10528;52.124;5.196;2023-03-11T01:58:18;1.00;99.90
20735;DHT22;10528;52.124;5.196;2023-03-11T02:00:49;0.90;99.90
20735;DHT22;10528;52.124;5.196;2023-03-11T02:03:35;0.90;99.90
20735;DHT22;10528;52.124;5.196;2023-03-11T02:06:11;0.90;99.90
20735;DHT22;10528;52.124;5.196;2023-03-11T02:08:42;0.90;99.90
20735;DHT22;10528;52.124;5.196;2023-03-11T02:11:15;0.90;99.90
20735;DHT22;10528;52.124;5.196;2023-03-11T02:13:46;0.90;99.90
20735;DHT22;10528;52.124;5.196;2023-03-11T02:16:15;0.80;99.90
20735;DHT22;10528;52.124;5.196;2023-03-11T02:18:44;0.80;99.90
20735;DHT22;10528;52.124;5.196;2023-03-11T02:21:24;0.80;99.90
20735;DHT22;10528;52.124;5.196;2023-03-11T02:27:02;0.70;99.90
20735;DHT22;10528;52.124;5.196;2023-03-11T02:29:33;0.70;99.90
20735;DHT22;10528;52.124;5.196;2023-03-11T02:32:05;0.70;99.90
20735;DHT22;10528;52.124;5.196;2023-03-11T02:34:39;0.60;99.90
20735;DHT22;10528;52.124;5.196;2023-03-11T02:37:08;0.60;99.90
20735;DHT22;10528;52.124;5.196;2023-03-11T02:39:49;0.60;99.90
20735;DHT22;10528;52.124;5.196;2023-03-11T02:42:24;0.60;99.90
20735;DHT22;10528;52.124;5.196;2023-03-11T02:45:03;0.60;99.90
20735;DHT22;10528;52.124;5.196;2023-03-11T02:47:36;0.50;99.90
20735;DHT22;10528;52.124;5.196;2023-03-11T02:50:09;0.50;99.90
20735;DHT22;10528;52.124;5.196;2023-03-11T02:52:39;0.50;99.90
20735;DHT22;10528;52.124;5.196;2023-03-11T02:55:07;0.50;99.90
20735;DHT22;10528;52.124;5.196;2023-03-11T02:57:35;0.40;99.90
20735;DHT22;10528;52.124;5.196;2023-03-11T03:00:04;0.40;99.90
20735;DHT22;10528;52.124;5.196;2023-03-11T03:02:42;0.40;99.90
20735;DHT22;10528;52.124;5.196;2023-03-11T03:05:10;0.30;99.90
20735;DHT22;10528;52.124;5.196;2023-03-11T03:07:38;0.30;99.90
20735;DHT22;10528;52.124;5.196;2023-03-11T03:10:07;0.30;99.90
20735;DHT22;10528;52.124;5.196;2023-03-11T03:12:35;0.30;99.90
20735;DHT22;10528;52.124;5.196;2023-03-11T03:15:01;0.30;99.90
20735;DHT22;10528;52.124;5.196;2023-03-11T03:17:29;0.30;99.90
20735;DHT22;10528;52.124;5.196;2023-03-11T03:19:55;0.30;99.90
20735;DHT22;10528;52.124;5.196;2023-03-11T03:22:22;0.30;99.90
20735;DHT22;10528;52.124;5.196;2023-03-11T03:24:52;0.20;99.90
20735;DHT22;10528;52.124;5.196;2023-03-11T03:27:19;0.20;99.90
20735;DHT22;10528;52.124;5.196;2023-03-11T03:29:46;0.20;99.90
20735;DHT22;10528;52.124;5.196;2023-03-11T03:32:14;0.20;99.90
20735;DHT22;10528;52.124;5.196;2023-03-11T03:34:42;0.10;99.90
20735;DHT22;10528;52.124;5.196;2023-03-11T03:37:08;0.10;99.90
20735;DHT22;10528;52.124;5.196;2023-03-11T03:39:35;0.10;99.90
20735;DHT22;10528;52.124;5.196;2023-03-11T03:42:02;0.10;99.90
20735;DHT22;10528;52.124;5.196;2023-03-11T03:44:32;0.00;99.90
20735;DHT22;10528;52.124;5.196;2023-03-11T03:46:59;0.00;99.90
20735;DHT22;10528;52.124;5.196;2023-03-11T03:49:26;-0.10;99.90
20735;DHT22;10528;52.124;5.196;2023-03-11T03:51:54;0.00;99.90
20735;DHT22;10528;52.124;5.196;2023-03-11T03:54:27;-0.10;99.90
20735;DHT22;10528;52.124;5.196;2023-03-11T03:56:54;-0.10;99.90
20735;DHT22;10528;52.124;5.196;2023-03-11T03:59:21;-0.10;99.90
20735;DHT22;10528;52.124;5.196;2023-03-11T04:01:52;-0.20;99.90
20735;DHT22;10528;52.124;5.196;2023-03-11T04:04:19;-0.20;99.90
20735;DHT22;10528;52.124;5.196;2023-03-11T04:06:47;-0.20;99.90
20735;DHT22;10528;52.124;5.196;2023-03-11T04:09:14;-0.20;99.90
20735;DHT22;10528;52.124;5.196;2023-03-11T04:11:41;-0.20;99.90
20735;DHT22;10528;52.124;5.196;2023-03-11T04:14:10;-0.20;99.90
20735;DHT22;10528;52.124;5.196;2023-03-11T04:16:43;-0.20;99.90
20735;DHT22;10528;52.124;5.196;2023-03-11T04:19:12;-0.20;99.90
20735;DHT22;10528;52.124;5.196;2023-03-11T04:21:39;-0.30;99.90
20735;DHT22;10528;52.124;5.196;2023-03-11T04:24:06;-0.20;99.90
20735;DHT22;10528;52.124;5.196;2023-03-11T04:26:35;-0.30;99.90
20735;DHT22;10528;52.124;5.196;2023-03-11T04:29:03;-0.30;99.90
20735;DHT22;10528;52.124;5.196;2023-03-11T04:31:37;-0.30;99.90
20735;DHT22;10528;52.124;5.196;2023-03-11T04:34:05;-0.30;99.90
20735;DHT22;10528;52.124;5.196;2023-03-11T04:36:33;-0.30;99.90
20735;DHT22;10528;52.124;5.196;2023-03-11T04:39:01;-0.30;99.90
20735;DHT22;10528;52.124;5.196;2023-03-11T04:41:31;-0.30;99.90
20735;DHT22;10528;52.124;5.196;2023-03-11T04:43:58;-0.30;99.90
20735;DHT22;10528;52.124;5.196;2023-03-11T04:46:26;-0.20;99.90
20735;DHT22;10528;52.124;5.196;2023-03-11T04:48:53;-0.30;99.90
20735;DHT22;10528;52.124;5.196;2023-03-11T04:51:20;-0.40;99.90
20735;DHT22;10528;52.124;5.196;2023-03-11T04:53:47;-0.40;99.90
20735;DHT22;10528;52.124;5.196;2023-03-11T04:56:14;-0.40;99.90
20735;DHT22;10528;52.124;5.196;2023-03-11T04:58:41;-0.50;99.90
20735;DHT22;10528;52.124;5.196;2023-03-11T05:01:08;-0.50;99.90
20735;DHT22;10528;52.124;5.196;2023-03-11T05:03:35;-0.50;99.90
20735;DHT22;10528;52.124;5.196;2023-03-11T05:06:02;-0.50;99.90
20735;DHT22;10528;52.124;5.196;2023-03-11T05:08:29;-0.50;99.90
20735;DHT22;10528;52.124;5.196;2023-03-11T05:10:56;-0.50;99.90
20735;DHT22;10528;52.124;5.196;2023-03-11T05:13:23;-0.50;99.90
20735;DHT22;10528;52.124;5.196;2023-03-11T05:15:51;-0.50;99.90
20735;DHT22;10528;52.124;5.196;2023-03-11T05:18:19;-0.60;99.90
20735;DHT22;10528;52.124;5.196;2023-03-11T05:20:47;-0.60;99.90
20735;DHT22;10528;52.124;5.196;2023-03-11T05:23:14;-0.60;99.90
20735;DHT22;10528;52.124;5.196;2023-03-11T05:25:42;-0.60;99.90
20735;DHT22;10528;52.124;5.196;2023-03-11T05:28:09;-0.60;99.90
20735;DHT22;10528;52.124;5.196;2023-03-11T05:30:42;-0.60;99.90
20735;DHT22;10528;52.124;5.196;2023-03-11T05:33:10;-0.60;99.90
20735;DHT22;10528;52.124;5.196;2023-03-11T05:35:36;-0.60;99.90
20735;DHT22;10528;52.124;5.196;2023-03-11T05:38:04;-0.70;99.90
20735;DHT22;10528;52.124;5.196;2023-03-11T05:40:31;-0.70;99.90
20735;DHT22;10528;52.124;5.196;2023-03-11T05:42:58;-0.70;99.90
20735;DHT22;10528;52.124;5.196;2023-03-11T05:45:28;-0.70;99.90
20735;DHT22;10528;52.124;5.196;2023-03-11T05:47:57;-0.80;99.90
20735;DHT22;10528;52.124;5.196;2023-03-11T05:50:24;-0.70;99.90
20735;DHT22;10528;52.124;5.196;2023-03-11T05:52:52;-0.80;99.90
20735;DHT22;10528;52.124;5.196;2023-03-11T05:55:20;-0.80;99.90
20735;DHT22;10528;52.124;5.196;2023-03-11T05:57:50;-0.80;99.90
20735;DHT22;10528;52.124;5.196;2023-03-11T06:00:18;-0.80;99.90
20735;DHT22;10528;52.124;5.196;2023-03-11T06:02:49;-0.80;99.90
20735;DHT22;10528;52.124;5.196;2023-03-11T06:05:18;-0.80;99.90
20735;DHT22;10528;52.124;5.196;2023-03-11T06:07:47;-0.80;99.90
20735;DHT22;10528;52.124;5.196;2023-03-11T06:10:14;-0.80;99.90
20735;DHT22;10528;52.124;5.196;2023-03-11T06:12:41;-0.80;99.90
20735;DHT22;10528;52.124;5.196;2023-03-11T06:15:34;-0.80;99.90
20735;DHT22;10528;52.124;5.196;2023-03-11T06:18:03;-0.90;99.90
20735;DHT22;10528;52.124;5.196;2023-03-11T06:20:31;-0.80;99.90
20735;DHT22;10528;52.124;5.196;2023-03-11T06:22:58;-0.80;99.90
20735;DHT22;10528;52.124;5.196;2023-03-11T06:25:25;-0.90;99.90
20735;DHT22;10528;52.124;5.196;2023-03-11T06:27:53;-0.90;99.90
20735;DHT22;10528;52.124;5.196;2023-03-11T06:30:23;-0.90;99.90
20735;DHT22;10528;52.124;5.196;2023-03-11T06:33:12;-0.80;99.90
20735;DHT22;10528;52.124;5.196;2023-03-11T06:35:41;-0.80;99.90
20735;DHT22;10528;52.124;5.196;2023-03-11T06:38:08;-0.80;99.90
20735;DHT22;10528;52.124;5.196;2023-03-11T06:40:36;-0.80;99.90
20735;DHT22;10528;52.124;5.196;2023-03-11T06:43:04;-0.70;99.90
20735;DHT22;10528;52.124;5.196;2023-03-11T06:45:33;-0.80;99.90
20735;DHT22;10528;52.124;5.196;2023-03-11T06:48:00;-0.70;99.90
20735;DHT22;10528;52.124;5.196;2023-03-11T06:50:28;-0.70;99.90
20735;DHT22;10528;52.124;5.196;2023-03-11T06:52:59;-0.60;99.90
20735;DHT22;10528;52.124;5.196;2023-03-11T06:55:27;-0.60;99.90
20735;DHT22;10528;52.124;5.196;2023-03-11T06:57:54;-0.60;99.90
20735;DHT22;10528;52.124;5.196;2023-03-11T07:00:21;-0.60;99.90
20735;DHT22;10528;52.124;5.196;2023-03-11T07:02:54;-0.60;99.90
20735;DHT22;10528;52.124;5.196;2023-03-11T07:05:21;-0.50;99.90
20735;DHT22;10528;52.124;5.196;2023-03-11T07:07:54;-0.30;99.90
20735;DHT22;10528;52.124;5.196;2023-03-11T07:10:22;-0.20;99.90
20735;DHT22;10528;52.124;5.196;2023-03-11T07:12:49;-0.20;99.90
20735;DHT22;10528;52.124;5.196;2023-03-11T07:15:16;0.00;99.90
20735;DHT22;10528;52.124;5.196;2023-03-11T07:17:43;0.00;99.90
20735;DHT22;10528;52.124;5.196;2023-03-11T07:20:10;0.00;99.90
20735;DHT22;10528;52.124;5.196;2023-03-11T07:22:38;0.00;99.90
20735;DHT22;10528;52.124;5.196;2023-03-11T07:25:05;0.10;99.90
20735;DHT22;10528;52.124;5.196;2023-03-11T07:27:32;0.10;99.90
20735;DHT22;10528;52.124;5.196;2023-03-11T07:30:00;0.10;99.90
20735;DHT22;10528;52.124;5.196;2023-03-11T07:32:28;0.10;99.90
20735;DHT22;10528;52.124;5.196;2023-03-11T07:34:55;0.20;99.90
20735;DHT22;10528;52.124;5.196;2023-03-11T07:37:21;0.20;99.90
20735;DHT22;10528;52.124;5.196;2023-03-11T07:39:48;0.20;99.90
20735;DHT22;10528;52.124;5.196;2023-03-11T07:42:15;0.30;99.90
20735;DHT22;10528;52.124;5.196;2023-03-11T07:44:43;0.30;99.90
20735;DHT22;10528;52.124;5.196;2023-03-11T07:47:10;0.40;99.90
20735;DHT22;10528;52.124;5.196;2023-03-11T07:49:37;0.40;99.90
20735;DHT22;10528;52.124;5.196;2023-03-11T07:52:05;0.50;99.90
20735;DHT22;10528;52.124;5.196;2023-03-11T07:54:32;0.50;99.90
20735;DHT22;10528;52.124;5.196;2023-03-11T07:56:59;0.50;99.90
20735;DHT22;10528;52.124;5.196;2023-03-11T07:59:26;0.70;99.90
20735;DHT22;10528;52.124;5.196;2023-03-11T08:01:54;0.70;99.90
20735;DHT22;10528;52.124;5.196;2023-03-11T08:04:22;0.80;99.90
20735;DHT22;10528;52.124;5.196;2023-03-11T08:06:49;0.90;99.90
20735;DHT22;10528;52.124;5.196;2023-03-11T08:09:16;1.00;99.90
20735;DHT22;10528;52.124;5.196;2023-03-11T08:11:43;1.10;99.90
20735;DHT22;10528;52.124;5.196;2023-03-11T08:14:10;1.40;99.90
20735;DHT22;10528;52.124;5.196;2023-03-11T08:16:39;1.50;99.90
20735;DHT22;10528;52.124;5.196;2023-03-11T08:19:06;1.60;99.90
20735;DHT22;10528;52.124;5.196;2023-03-11T08:21:38;1.80;99.90
20735;DHT22;10528;52.124;5.196;2023-03-11T08:24:06;1.90;99.90
20735;DHT22;10528;52.124;5.196;2023-03-11T08:26:33;2.00;99.90
20735;DHT22;10528;52.124;5.196;2023-03-11T08:29:00;2.10;99.90
20735;DHT22;10528;52.124;5.196;2023-03-11T08:31:29;2.20;99.90
20735;DHT22;10528;52.124;5.196;2023-03-11T08:34:07;2.40;99.90
20735;DHT22;10528;52.124;5.196;2023-03-11T08:36:36;2.40;99.90
20735;DHT22;10528;52.124;5.196;2023-03-11T08:39:03;2.50;99.90
20735;DHT22;10528;52.124;5.196;2023-03-11T08:41:30;2.60;99.90
20735;DHT22;10528;52.124;5.196;2023-03-11T08:43:57;2.80;99.90
20735;DHT22;10528;52.124;5.196;2023-03-11T08:46:30;2.80;99.90
20735;DHT22;10528;52.124;5.196;2023-03-11T08:49:00;2.90;99.90
20735;DHT22;10528;52.124;5.196;2023-03-11T08:51:29;3.00;99.90
20735;DHT22;10528;52.124;5.196;2023-03-11T08:53:58;3.00;99.90
20735;DHT22;10528;52.124;5.196;2023-03-11T08:56:25;3.20;99.90
20735;DHT22;10528;52.124;5.196;2023-03-11T08:58:53;3.30;99.90
20735;DHT22;10528;52.124;5.196;2023-03-11T09:01:20;3.50;99.90
20735;DHT22;10528;52.124;5.196;2023-03-11T09:03:48;3.60;99.90
20735;DHT22;10528;52.124;5.196;2023-03-11T09:06:16;3.80;99.90
20735;DHT22;10528;52.124;5.196;2023-03-11T09:08:44;3.80;99.90
20735;DHT22;10528;52.124;5.196;2023-03-11T09:11:12;3.90;99.90
20735;DHT22;10528;52.124;5.196;2023-03-11T09:13:41;3.80;99.90
20735;DHT22;10528;52.124;5.196;2023-03-11T09:16:12;4.00;99.90
20735;DHT22;10528;52.124;5.196;2023-03-11T09:18:40;4.00;99.90
20735;DHT22;10528;52.124;5.196;2023-03-11T09:21:08;4.00;99.90
20735;DHT22;10528;52.124;5.196;2023-03-11T09:23:36;4.10;99.90
20735;DHT22;10528;52.124;5.196;2023-03-11T09:26:04;4.10;99.90
20735;DHT22;10528;52.124;5.196;2023-03-11T09:28:31;4.10;99.90
20735;DHT22;10528;52.124;5.196;2023-03-11T09:30:58;4.30;99.90
20735;DHT22;10528;52.124;5.196;2023-03-11T09:33:25;4.50;99.90
20735;DHT22;10528;52.124;5.196;2023-03-11T09:35:53;4.50;99.90
20735;DHT22;10528;52.124;5.196;2023-03-11T09:38:20;4.40;99.90
20735;DHT22;10528;52.124;5.196;2023-03-11T09:40:57;4.50;99.90
20735;DHT22;10528;52.124;5.196;2023-03-11T09:47:32;4.40;99.90
20735;DHT22;10528;52.124;5.196;2023-03-11T09:55:54;4.90;99.90
20735;DHT22;10528;52.124;5.196;2023-03-11T09:58:42;4.90;99.90
20735;DHT22;10528;52.124;5.196;2023-03-11T10:01:27;4.90;99.90
20735;DHT22;10528;52.124;5.196;2023-03-11T10:06:53;5.20;99.90
20735;DHT22;10528;52.124;5.196;2023-03-11T10:09:35;5.20;99.90
20735;DHT22;10528;52.124;5.196;2023-03-11T10:12:48;5.40;99.90
20735;DHT22;10528;52.124;5.196;2023-03-11T10:15:59;5.40;99.90
20735;DHT22;10528;52.124;5.196;2023-03-11T10:18:52;5.50;99.90
20735;DHT22;10528;52.124;5.196;2023-03-11T10:27:21;6.00;99.90
20735;DHT22;10528;52.124;5.196;2023-03-11T10:30:08;5.80;99.90
20735;DHT22;10528;52.124;5.196;2023-03-11T10:33:32;5.70;99.90
20735;DHT22;10528;52.124;5.196;2023-03-11T10:35:54;5.80;99.90
20735;DHT22;10528;52.124;5.196;2023-03-11T10:38:31;5.80;99.90
20735;DHT22;10528;52.124;5.196;2023-03-11T10:44:11;5.90;99.90
20735;DHT22;10528;52.124;5.196;2023-03-11T10:46:41;6.20;99.90
20735;DHT22;10528;52.124;5.196;2023-03-11T10:49:18;6.20;99.90
20735;DHT22;10528;52.124;5.196;2023-03-11T10:51:48;6.60;99.90
20735;DHT22;10528;52.124;5.196;2023-03-11T10:54:32;6.90;99.90
20735;DHT22;10528;52.124;5.196;2023-03-11T10:57:18;7.00;99.90
20735;DHT22;10528;52.124;5.196;2023-03-11T10:59:49;7.00;99.90
20735;DHT22;10528;52.124;5.196;2023-03-11T11:05:31;6.80;99.90
20735;DHT22;10528;52.124;5.196;2023-03-11T11:08:14;6.80;99.90
20735;DHT22;10528;52.124;5.196;2023-03-11T11:10:54;7.10;99.90
20735;DHT22;10528;52.124;5.196;2023-03-11T11:13:26;7.30;99.90
20735;DHT22;10528;52.124;5.196;2023-03-11T11:15:59;7.50;99.90
20735;DHT22;10528;52.124;5.196;2023-03-11T11:18:41;7.30;99.90
20735;DHT22;10528;52.124;5.196;2023-03-11T11:21:26;7.50;99.90
20735;DHT22;10528;52.124;5.196;2023-03-11T11:27:04;7.60;99.90
20735;DHT22;10528;52.124;5.196;2023-03-11T11:29:37;7.60;99.90
20735;DHT22;10528;52.124;5.196;2023-03-11T11:32:24;7.50;99.90
20735;DHT22;10528;52.124;5.196;2023-03-11T11:37:24;7.50;99.90
20735;DHT22;10528;52.124;5.196;2023-03-11T11:42:51;7.60;99.90
20735;DHT22;10528;52.124;5.196;2023-03-11T11:50:53;7.80;99.90
20735;DHT22;10528;52.124;5.196;2023-03-11T11:53:39;8.00;99.90
20735;DHT22;10528;52.124;5.196;2023-03-11T11:56:18;7.80;99.90
20735;DHT22;10528;52.124;5.196;2023-03-11T11:58:44;7.80;99.90
20735;DHT22;10528;52.124;5.196;2023-03-11T12:05:10;7.60;99.90
20735;DHT22;10528;52.124;5.196;2023-03-11T12:11:15;7.50;99.90
20735;DHT22;10528;52.124;5.196;2023-03-11T12:13:56;7.90;99.90
20735;DHT22;10528;52.124;5.196;2023-03-11T12:16:51;7.80;99.90
20735;DHT22;10528;52.124;5.196;2023-03-11T12:30:55;7.60;99.90
20735;DHT22;10528;52.124;5.196;2023-03-11T12:36:37;8.00;99.90
20735;DHT22;10528;52.124;5.196;2023-03-11T12:39:23;8.10;99.90
20735;DHT22;10528;52.124;5.196;2023-03-11T12:42:19;8.10;99.90
20735;DHT22;10528;52.124;5.196;2023-03-11T12:44:48;8.20;99.90
20735;DHT22;10528;52.124;5.196;2023-03-11T12:47:24;7.90;99.90
20735;DHT22;10528;52.124;5.196;2023-03-11T12:50:41;7.90;99.90
20735;DHT22;10528;52.124;5.196;2023-03-11T12:53:16;8.00;99.90
20735;DHT22;10528;52.124;5.196;2023-03-11T12:56:04;8.10;99.90
20735;DHT22;10528;52.124;5.196;2023-03-11T12:58:58;8.00;99.90
20735;DHT22;10528;52.124;5.196;2023-03-11T13:01:56;8.10;99.90
20735;DHT22;10528;52.124;5.196;2023-03-11T13:08:42;8.20;99.90
20735;DHT22;10528;52.124;5.196;2023-03-11T13:14:09;8.10;99.90
20735;DHT22;10528;52.124;5.196;2023-03-11T13:16:38;8.10;99.90
20735;DHT22;10528;52.124;5.196;2023-03-11T13:21:52;8.00;99.90
20735;DHT22;10528;52.124;5.196;2023-03-11T13:29:45;7.80;99.90
20735;DHT22;10528;52.124;5.196;2023-03-11T13:36:01;8.00;99.90
20735;DHT22;10528;52.124;5.196;2023-03-11T13:38:57;7.90;99.90
20735;DHT22;10528;52.124;5.196;2023-03-11T13:41:41;7.80;99.90
20735;DHT22;10528;52.124;5.196;2023-03-11T13:44:21;8.00;99.90
20735;DHT22;10528;52.124;5.196;2023-03-11T13:47:07;7.90;99.90
20735;DHT22;10528;52.124;5.196;2023-03-11T13:49:58;7.90;99.90
20735;DHT22;10528;52.124;5.196;2023-03-11T13:52:35;7.90;99.90
20735;DHT22;10528;52.124;5.196;2023-03-11T13:57:54;7.80;99.90
20735;DHT22;10528;52.124;5.196;2023-03-11T14:00:24;7.90;99.90
20735;DHT22;10528;52.124;5.196;2023-03-11T14:03:00;7.80;99.90
20735;DHT22;10528;52.124;5.196;2023-03-11T14:05:36;7.50;99.90
20735;DHT22;10528;52.124;5.196;2023-03-11T14:08:19;7.60;99.90
20735;DHT22;10528;52.124;5.196;2023-03-11T14:10:56;7.50;99.90
20735;DHT22;10528;52.124;5.196;2023-03-11T14:13:30;7.70;99.90
20735;DHT22;10528;52.124;5.196;2023-03-11T14:16:12;7.70;99.90
20735;DHT22;10528;52.124;5.196;2023-03-11T14:18:44;7.70;99.90
20735;DHT22;10528;52.124;5.196;2023-03-11T14:21:30;7.60;99.90
20735;DHT22;10528;52.124;5.196;2023-03-11T14:23:57;7.70;99.90
20735;DHT22;10528;52.124;5.196;2023-03-11T14:26:31;7.70;99.90
20735;DHT22;10528;52.124;5.196;2023-03-11T14:29:07;7.70;99.90
20735;DHT22;10528;52.124;5.196;2023-03-11T14:31:42;7.60;99.90
20735;DHT22;10528;52.124;5.196;2023-03-11T14:34:20;7.70;99.90
20735;DHT22;10528;52.124;5.196;2023-03-11T14:36:53;7.70;99.90
20735;DHT22;10528;52.124;5.196;2023-03-11T14:39:37;7.70;99.90
20735;DHT22;10528;52.124;5.196;2023-03-11T14:42:46;7.60;99.90
20735;DHT22;10528;52.124;5.196;2023-03-11T14:45:16;7.70;99.90
20735;DHT22;10528;52.124;5.196;2023-03-11T14:48:02;7.70;99.90
20735;DHT22;10528;52.124;5.196;2023-03-11T14:50:39;7.80;99.90
20735;DHT22;10528;52.124;5.196;2023-03-11T14:53:31;7.80;99.90
20735;DHT22;10528;52.124;5.196;2023-03-11T14:56:10;7.80;99.90
20735;DHT22;10528;52.124;5.196;2023-03-11T14:58:47;7.80;99.90
20735;DHT22;10528;52.124;5.196;2023-03-11T15:01:38;7.70;99.90
20735;DHT22;10528;52.124;5.196;2023-03-11T15:06:59;7.70;99.90
20735;DHT22;10528;52.124;5.196;2023-03-11T15:09:27;7.70;99.90
20735;DHT22;10528;52.124;5.196;2023-03-11T15:11:56;7.70;99.90
20735;DHT22;10528;52.124;5.196;2023-03-11T15:14:26;7.70;99.90
20735;DHT22;10528;52.124;5.196;2023-03-11T15:17:17;7.60;99.90
20735;DHT22;10528;52.124;5.196;2023-03-11T15:20:25;7.60;99.90
20735;DHT22;10528;52.124;5.196;2023-03-11T15:23:04;7.70;99.90
20735;DHT22;10528;52.124;5.196;2023-03-11T15:25:36;7.50;99.90
20735;DHT22;10528;52.124;5.196;2023-03-11T15:28:25;7.50;99.90
20735;DHT22;10528;52.124;5.196;2023-03-11T15:31:34;7.60;99.90
20735;DHT22;10528;52.124;5.196;2023-03-11T15:39:20;7.70;99.90
20735;DHT22;10528;52.124;5.196;2023-03-11T15:44:48;7.50;99.90
20735;DHT22;10528;52.124;5.196;2023-03-11T15:47:40;7.40;99.90
20735;DHT22;10528;52.124;5.196;2023-03-11T15:50:28;7.50;99.90
20735;DHT22;10528;52.124;5.196;2023-03-11T15:53:12;7.40;99.90
20735;DHT22;10528;52.124;5.196;2023-03-11T15:55:39;7.50;99.90
20735;DHT22;10528;52.124;5.196;2023-03-11T15:58:07;7.30;99.90
20735;DHT22;10528;52.124;5.196;2023-03-11T16:00:35;7.30;99.90
20735;DHT22;10528;52.124;5.196;2023-03-11T16:03:03;7.30;99.90
20735;DHT22;10528;52.124;5.196;2023-03-11T16:05:30;7.60;99.90
20735;DHT22;10528;52.124;5.196;2023-03-11T16:07:57;7.40;99.90
20735;DHT22;10528;52.124;5.196;2023-03-11T16:10:24;7.40;99.90
20735;DHT22;10528;52.124;5.196;2023-03-11T16:12:51;7.40;99.90
20735;DHT22;10528;52.124;5.196;2023-03-11T16:15:21;7.30;99.90
20735;DHT22;10528;52.124;5.196;2023-03-11T16:17:59;7.20;99.90
20735;DHT22;10528;52.124;5.196;2023-03-11T16:20:45;7.20;99.90
20735;DHT22;10528;52.124;5.196;2023-03-11T16:23:21;7.20;99.90
20735;DHT22;10528;52.124;5.196;2023-03-11T16:25:54;7.20;99.90
20735;DHT22;10528;52.124;5.196;2023-03-11T16:28:26;7.20;99.90
20735;DHT22;10528;52.124;5.196;2023-03-11T16:30:53;7.10;99.90
20735;DHT22;10528;52.124;5.196;2023-03-11T16:33:20;7.10;99.90
20735;DHT22;10528;52.124;5.196;2023-03-11T16:35:47;7.10;99.90
20735;DHT22;10528;52.124;5.196;2023-03-11T16:38:14;7.10;99.90
20735;DHT22;10528;52.124;5.196;2023-03-11T16:40:43;7.00;99.90
20735;DHT22;10528;52.124;5.196;2023-03-11T16:43:11;7.00;99.90
20735;DHT22;10528;52.124;5.196;2023-03-11T16:45:39;6.90;99.90
20735;DHT22;10528;52.124;5.196;2023-03-11T16:48:06;6.90;99.90
20735;DHT22;10528;52.124;5.196;2023-03-11T16:50:33;6.90;99.90
20735;DHT22;10528;52.124;5.196;2023-03-11T16:53:03;6.90;99.90
20735;DHT22;10528;52.124;5.196;2023-03-11T16:55:30;6.80;99.90
20735;DHT22;10528;52.124;5.196;2023-03-11T16:57:57;6.80;99.90
20735;DHT22;10528;52.124;5.196;2023-03-11T17:00:24;6.80;99.90
20735;DHT22;10528;52.124;5.196;2023-03-11T17:02:52;6.80;99.90
20735;DHT22;10528;52.124;5.196;2023-03-11T17:05:19;6.70;99.90
20735;DHT22;10528;52.124;5.196;2023-03-11T17:07:47;6.70;99.90
20735;DHT22;10528;52.124;5.196;2023-03-11T17:10:14;6.60;99.90
20735;DHT22;10528;52.124;5.196;2023-03-11T17:12:40;6.60;99.90
20735;DHT22;10528;52.124;5.196;2023-03-11T17:15:08;6.50;99.90
20735;DHT22;10528;52.124;5.196;2023-03-11T17:17:35;6.40;99.90
20735;DHT22;10528;52.124;5.196;2023-03-11T17:20:02;6.30;99.90
20735;DHT22;10528;52.124;5.196;2023-03-11T17:22:31;6.20;99.90
20735;DHT22;10528;52.124;5.196;2023-03-11T17:24:58;6.20;99.90
20735;DHT22;10528;52.124;5.196;2023-03-11T17:27:25;6.00;99.90
20735;DHT22;10528;52.124;5.196;2023-03-11T17:29:58;5.90;99.90
20735;DHT22;10528;52.124;5.196;2023-03-11T17:32:30;5.80;99.90
20735;DHT22;10528;52.124;5.196;2023-03-11T17:34:56;5.70;99.90
20735;DHT22;10528;52.124;5.196;2023-03-11T17:37:24;5.70;99.90
20735;DHT22;10528;52.124;5.196;2023-03-11T17:39:51;5.60;99.90
20735;DHT22;10528;52.124;5.196;2023-03-11T17:42:18;5.40;99.90
20735;DHT22;10528;52.124;5.196;2023-03-11T17:44:45;5.30;99.90
20735;DHT22;10528;52.124;5.196;2023-03-11T17:47:18;5.20;99.90
20735;DHT22;10528;52.124;5.196;2023-03-11T17:49:45;5.10;99.90
20735;DHT22;10528;52.124;5.196;2023-03-11T17:52:13;5.10;99.90